sensor_id;sensor_type;location;lat;lon;timestamp;temperature;humidity
17671;DHT22;8954;48.694;8.940;2023-06-26T07:29:10;27.90;94.80
17671;DHT22;8954;48.694;8.940;2023-06-26T07:31:35;27.80;94.50
17671;DHT22;8954;48.694;8.940;2023-06-26T07:34:01;28.00;93.50
17671;DHT22;8954;48.694;8.940;2023-06-26T07:36:26;28.10;93.30
17671;DHT22;8954;48.694;8.940;2023-06-26T07:38:52;28.40;92.40
17671;DHT22;8954;48.694;8.940;2023-06-26T07:41:17;28.50;91.80
17671;DHT22;8954;48.694;8.940;2023-06-26T07:43:43;28.80;91.60
17671;DHT22;8954;48.694;8.940;2023-06-26T07:46:08;28.90;90.70
17671;DHT22;8954;48.694;8.940;2023-06-26T07:48:34;29.10;90.20
17671;DHT22;8954;48.694;8.940;2023-06-26T07:50:59;29.10;88.90
17671;DHT22;8954;48.694;8.940;2023-06-26T07:53:25;29.10;87.60
17671;DHT22;8954;48.694;8.940;2023-06-26T07:55:50;29.20;88.00
17671;DHT22;8954;48.694;8.940;2023-06-26T07:58:16;29.40;88.40
17671;DHT22;8954;48.694;8.940;2023-06-26T08:00:42;29.60;87.10
17671;DHT22;8954;48.694;8.940;2023-06-26T08:03:07;29.70;85.40
17671;DHT22;8954;48.694;8.940;2023-06-26T08:05:33;29.70;85.20
17671;DHT22;8954;48.694;8.940;2023-06-26T08:07:59;29.90;84.80
17671;DHT22;8954;48.694;8.940;2023-06-26T08:10:27;30.00;82.10
17671;DHT22;8954;48.694;8.940;2023-06-26T08:12:52;30.20;81.40
17671;DHT22;8954;48.694;8.940;2023-06-26T08:15:18;30.20;80.50
17671;DHT22;8954;48.694;8.940;2023-06-26T08:17:43;30.50;79.20
17671;DHT22;8954;48.694;8.940;2023-06-26T08:20:09;30.60;79.10
17671;DHT22;8954;48.694;8.940;2023-06-26T08:22:35;30.70;78.10
17671;DHT22;8954;48.694;8.940;2023-06-26T08:25:02;31.00;77.80
17671;DHT22;8954;48.694;8.940;2023-06-26T08:27:28;31.10;75.50
17671;DHT22;8954;48.694;8.940;2023-06-26T08:29:54;31.00;74.90
17671;DHT22;8954;48.694;8.940;2023-06-26T08:32:19;31.10;75.10
17671;DHT22;8954;48.694;8.940;2023-06-26T08:34:45;31.30;74.20
17671;DHT22;8954;48.694;8.940;2023-06-26T08:37:10;31.40;74.00
17671;DHT22;8954;48.694;8.940;2023-06-26T08:39:36;31.60;74.40
17671;DHT22;8954;48.694;8.940;2023-06-26T08:42:01;31.80;72.50
17671;DHT22;8954;48.694;8.940;2023-06-26T08:44:27;32.10;71.20
17671;DHT22;8954;48.694;8.940;2023-06-26T08:46:52;32.20;69.60
17671;DHT22;8954;48.694;8.940;2023-06-26T08:49:21;32.10;69.40
17671;DHT22;8954;48.694;8.940;2023-06-26T08:52:15;32.10;69.90
17671;DHT22;8954;48.694;8.940;2023-06-26T08:54:46;32.20;68.80
17671;DHT22;8954;48.694;8.940;2023-06-26T08:57:15;32.30;68.70
17671;DHT22;8954;48.694;8.940;2023-06-26T08:59:41;32.40;68.30
17671;DHT22;8954;48.694;8.940;2023-06-26T09:02:07;32.50;68.30
17671;DHT22;8954;48.694;8.940;2023-06-26T09:04:33;32.70;67.20
17671;DHT22;8954;48.694;8.940;2023-06-26T09:06:59;33.00;67.30
17671;DHT22;8954;48.694;8.940;2023-06-26T09:09:25;33.40;66.30
17671;DHT22;8954;48.694;8.940;2023-06-26T09:11:51;33.70;64.30
17671;DHT22;8954;48.694;8.940;2023-06-26T09:14:17;34.00;62.80
17671;DHT22;8954;48.694;8.940;2023-06-26T09:16:42;34.20;63.10
17671;DHT22;8954;48.694;8.940;2023-06-26T09:21:42;34.60;62.50
17671;DHT22;8954;48.694;8.940;2023-06-26T09:24:08;34.60;62.00
17671;DHT22;8954;48.694;8.940;2023-06-26T09:26:38;34.20;62.90
17671;DHT22;8954;48.694;8.940;2023-06-26T09:29:06;34.10;63.90
17671;DHT22;8954;48.694;8.940;2023-06-26T09:31:33;34.30;61.90
17671;DHT22;8954;48.694;8.940;2023-06-26T09:33:59;34.40;62.30
17671;DHT22;8954;48.694;8.940;2023-06-26T09:36:28;34.60;61.00
17671;DHT22;8954;48.694;8.940;2023-06-26T09:38:54;34.90;59.50
17671;DHT22;8954;48.694;8.940;2023-06-26T09:41:20;35.50;57.70
17671;DHT22;8954;48.694;8.940;2023-06-26T09:43:49;35.80;57.90
17671;DHT22;8954;48.694;8.940;2023-06-26T09:46:26;36.60;57.40
17671;DHT22;8954;48.694;8.940;2023-06-26T09:49:12;37.80;55.60
17671;DHT22;8954;48.694;8.940;2023-06-26T09:51:39;38.30;53.60
17671;DHT22;8954;48.694;8.940;2023-06-26T09:54:05;38.40;53.70
17671;DHT22;8954;48.694;8.940;2023-06-26T09:56:32;38.40;54.00
17671;DHT22;8954;48.694;8.940;2023-06-26T09:59:00;38.40;58.30
17671;DHT22;8954;48.694;8.940;2023-06-26T10:01:27;37.80;56.70
17671;DHT22;8954;48.694;8.940;2023-06-26T10:03:53;37.90;56.40
17671;DHT22;8954;48.694;8.940;2023-06-26T10:06:24;37.60;57.00
17671;DHT22;8954;48.694;8.940;2023-06-26T10:08:52;36.30;65.80
17671;DHT22;8954;48.694;8.940;2023-06-26T10:11:21;36.10;65.10
17671;DHT22;8954;48.694;8.940;2023-06-26T10:13:50;35.70;65.90
17671;DHT22;8954;48.694;8.940;2023-06-26T10:16:24;35.40;68.00
17671;DHT22;8954;48.694;8.940;2023-06-26T10:18:53;35.30;70.80
17671;DHT22;8954;48.694;8.940;2023-06-26T10:21:22;34.90;73.20
17671;DHT22;8954;48.694;8.940;2023-06-26T10:23:50;35.30;69.70
17671;DHT22;8954;48.694;8.940;2023-06-26T10:26:18;36.20;66.80
17671;DHT22;8954;48.694;8.940;2023-06-26T10:28:48;36.90;67.20
17671;DHT22;8954;48.694;8.940;2023-06-26T10:31:23;37.30;67.10
17671;DHT22;8954;48.694;8.940;2023-06-26T10:38:59;39.10;79.70
17671;DHT22;8954;48.694;8.940;2023-06-26T10:41:39;40.10;56.40
17671;DHT22;8954;48.694;8.940;2023-06-26T10:44:09;39.70;56.10
17671;DHT22;8954;48.694;8.940;2023-06-26T10:46:51;39.30;57.00
17671;DHT22;8954;48.694;8.940;2023-06-26T10:49:24;39.20;57.20
17671;DHT22;8954;48.694;8.940;2023-06-26T10:51:51;39.70;56.50
17671;DHT22;8954;48.694;8.940;2023-06-26T10:54:18;39.70;56.00
17671;DHT22;8954;48.694;8.940;2023-06-26T10:56:49;38.70;56.40
17671;DHT22;8954;48.694;8.940;2023-06-26T10:59:19;37.80;57.40
17671;DHT22;8954;48.694;8.940;2023-06-26T11:07:20;36.10;59.10
17671;DHT22;8954;48.694;8.940;2023-06-26T11:09:58;36.90;58.30
17671;DHT22;8954;48.694;8.940;2023-06-26T11:12:35;37.80;57.20
17671;DHT22;8954;48.694;8.940;2023-06-26T11:15:03;38.80;55.60
17671;DHT22;8954;48.694;8.940;2023-06-26T11:17:29;40.10;54.30
17671;DHT22;8954;48.694;8.940;2023-06-26T11:19:55;40.70;53.10
17671;DHT22;8954;48.694;8.940;2023-06-26T11:22:21;39.90;54.10
17671;DHT22;8954;48.694;8.940;2023-06-26T11:24:50;40.00;54.80
17671;DHT22;8954;48.694;8.940;2023-06-26T11:27:18;40.30;54.60
17671;DHT22;8954;48.694;8.940;2023-06-26T11:29:48;41.30;55.80
17671;DHT22;8954;48.694;8.940;2023-06-26T11:32:14;41.90;62.00
17671;DHT22;8954;48.694;8.940;2023-06-26T11:34:39;42.50;52.10
17671;DHT22;8954;48.694;8.940;2023-06-26T11:37:06;42.90;54.10
17671;DHT22;8954;48.694;8.940;2023-06-26T11:39:33;42.90;52.10
17671;DHT22;8954;48.694;8.940;2023-06-26T11:44:29;44.00;49.60
17671;DHT22;8954;48.694;8.940;2023-06-26T11:46:56;44.20;49.20
17671;DHT22;8954;48.694;8.940;2023-06-26T11:49:23;44.80;49.50
17671;DHT22;8954;48.694;8.940;2023-06-26T11:51:50;45.10;49.40
17671;DHT22;8954;48.694;8.940;2023-06-26T11:54:23;44.90;48.90
17671;DHT22;8954;48.694;8.940;2023-06-26T11:56:57;44.20;49.60
17671;DHT22;8954;48.694;8.940;2023-06-26T11:59:24;44.20;50.10
17671;DHT22;8954;48.694;8.940;2023-06-26T12:01:56;43.70;50.10
17671;DHT22;8954;48.694;8.940;2023-06-26T12:04:23;41.80;52.00
17671;DHT22;8954;48.694;8.940;2023-06-26T12:06:51;41.20;52.90
17671;DHT22;8954;48.694;8.940;2023-06-26T12:09:18;41.30;53.00
17671;DHT22;8954;48.694;8.940;2023-06-26T12:11:47;41.40;53.20
17671;DHT22;8954;48.694;8.940;2023-06-26T12:14:14;42.30;51.60
17671;DHT22;8954;48.694;8.940;2023-06-26T12:16:42;41.70;52.10
17671;DHT22;8954;48.694;8.940;2023-06-26T12:19:08;40.40;54.10
17671;DHT22;8954;48.694;8.940;2023-06-26T12:24:03;41.20;53.70
17671;DHT22;8954;48.694;8.940;2023-06-26T12:26:29;41.50;54.00
17671;DHT22;8954;48.694;8.940;2023-06-26T12:29:02;42.40;52.60
17671;DHT22;8954;48.694;8.940;2023-06-26T12:31:28;43.20;51.80
17671;DHT22;8954;48.694;8.940;2023-06-26T12:33:54;43.20;51.90
17671;DHT22;8954;48.694;8.940;2023-06-26T12:36:19;42.40;52.00
17671;DHT22;8954;48.694;8.940;2023-06-26T12:38:45;42.20;52.60
17671;DHT22;8954;48.694;8.940;2023-06-26T12:41:15;42.40;52.50
17671;DHT22;8954;48.694;8.940;2023-06-26T12:43:41;43.10;51.90
17671;DHT22;8954;48.694;8.940;2023-06-26T12:46:07;44.00;50.60
17671;DHT22;8954;48.694;8.940;2023-06-26T12:48:41;43.20;51.20
17671;DHT22;8954;48.694;8.940;2023-06-26T12:51:16;43.60;50.80
17671;DHT22;8954;48.694;8.940;2023-06-26T12:53:42;43.50;50.80
17671;DHT22;8954;48.694;8.940;2023-06-26T12:56:09;43.00;51.40
17671;DHT22;8954;48.694;8.940;2023-06-26T12:58:36;43.10;51.40
17671;DHT22;8954;48.694;8.940;2023-06-26T13:01:06;43.30;50.60
17671;DHT22;8954;48.694;8.940;2023-06-26T13:03:38;43.00;50.90
17671;DHT22;8954;48.694;8.940;2023-06-26T13:06:04;42.60;51.00
17671;DHT22;8954;48.694;8.940;2023-06-26T13:08:29;42.00;51.70
17671;DHT22;8954;48.694;8.940;2023-06-26T13:10:55;42.10;52.00
17671;DHT22;8954;48.694;8.940;2023-06-26T13:13:20;41.70;51.70
17671;DHT22;8954;48.694;8.940;2023-06-26T13:15:47;41.40;52.10
17671;DHT22;8954;48.694;8.940;2023-06-26T13:18:12;42.00;51.40
17671;DHT22;8954;48.694;8.940;2023-06-26T13:20:38;41.30;51.50
17671;DHT22;8954;48.694;8.940;2023-06-26T13:23:04;41.30;51.90
17671;DHT22;8954;48.694;8.940;2023-06-26T13:25:30;42.00;51.80
17671;DHT22;8954;48.694;8.940;2023-06-26T13:27:55;42.50;50.90
17671;DHT22;8954;48.694;8.940;2023-06-26T13:30:21;42.30;50.10
17671;DHT22;8954;48.694;8.940;2023-06-26T13:32:47;42.10;50.50
17671;DHT22;8954;48.694;8.940;2023-06-26T13:35:12;42.60;50.50
17671;DHT22;8954;48.694;8.940;2023-06-26T13:37:40;43.10;49.90
17671;DHT22;8954;48.694;8.940;2023-06-26T13:40:09;43.30;49.50
17671;DHT22;8954;48.694;8.940;2023-06-26T13:42:35;43.10;49.10
17671;DHT22;8954;48.694;8.940;2023-06-26T13:45:02;42.70;48.80
17671;DHT22;8954;48.694;8.940;2023-06-26T13:47:28;42.00;50.00
17671;DHT22;8954;48.694;8.940;2023-06-26T13:49:54;42.20;49.20
17671;DHT22;8954;48.694;8.940;2023-06-26T13:52:23;41.70;49.20
17671;DHT22;8954;48.694;8.940;2023-06-26T13:54:49;41.40;49.50
17671;DHT22;8954;48.694;8.940;2023-06-26T13:57:14;41.20;49.80
17671;DHT22;8954;48.694;8.940;2023-06-26T13:59:40;41.00;50.40
17671;DHT22;8954;48.694;8.940;2023-06-26T14:02:07;41.30;49.70
17671;DHT22;8954;48.694;8.940;2023-06-26T14:04:33;41.50;49.00
17671;DHT22;8954;48.694;8.940;2023-06-26T14:07:04;41.60;48.90
17671;DHT22;8954;48.694;8.940;2023-06-26T14:09:30;41.70;48.80
17671;DHT22;8954;48.694;8.940;2023-06-26T14:11:58;42.20;48.20
17671;DHT22;8954;48.694;8.940;2023-06-26T14:14:24;42.10;47.40
17671;DHT22;8954;48.694;8.940;2023-06-26T14:16:50;41.50;48.20
17671;DHT22;8954;48.694;8.940;2023-06-26T14:19:16;41.10;48.50
17671;DHT22;8954;48.694;8.940;2023-06-26T14:21:43;40.90;49.30
17671;DHT22;8954;48.694;8.940;2023-06-26T14:24:08;40.10;49.50
17671;DHT22;8954;48.694;8.940;2023-06-26T14:26:34;38.90;50.80
17671;DHT22;8954;48.694;8.940;2023-06-26T14:29:00;38.90;51.10
17671;DHT22;8954;48.694;8.940;2023-06-26T14:31:26;39.40;51.10
17671;DHT22;8954;48.694;8.940;2023-06-26T14:33:52;40.20;50.50
17671;DHT22;8954;48.694;8.940;2023-06-26T14:36:17;40.80;49.20
17671;DHT22;8954;48.694;8.940;2023-06-26T14:38:44;40.50;49.20
17671;DHT22;8954;48.694;8.940;2023-06-26T14:41:10;40.70;49.10
17671;DHT22;8954;48.694;8.940;2023-06-26T14:43:36;40.60;49.40
17671;DHT22;8954;48.694;8.940;2023-06-26T14:46:01;40.10;50.10
17671;DHT22;8954;48.694;8.940;2023-06-26T14:48:27;39.40;51.00
